Monroe, NE (68647)

00:30 CST le 28 janvier 2015 (GMT -0600)
KNEMONRO3 | Change Station
CLOSE
Current Station
Stations météorologiques personnelles
Location: Monroe, NE
Altitude: 1525 ft
Stations météo à proximité

Alt. 1525 ft 41.47 °N, 97.62 °W | Updated 56 seconds ago

Ciel dégagé
Ciel dégagé
38.8 ° F
Paraît 39 ° F
N
0.7
Vent Variable Vent de ESE
Gusts 5.4 mph

Aujourd'hui
Haut(e) -- | Bas -- ° F
--% Risque de précip.
Hier
Haut(e) -- | Bas -- ° F
Precip. -- pouce
7:45 AM 5:41 PM
Premier quartier, 61% visible
Pression 29.94 pouce
Visibilité 10.0 Miles terrestres
Nuages Ciel dégagé
Refroidissement éolien 39 ° F
Point de rosée 30 ° F
Humidité 71%
Précipitations 0.00 pouce
Profondeur de la couche neigeuse Non disponible.
UV 0 sur 12
Pollen .10 sur 12
Qualité de l'air Non disponible.
Flu Activity Non disponible.
METAR KOLU 280615Z AUTO 14008KT 10SM CLR 04/M02 A2994 RMK AO1

More Conditions Fewer Conditions

Pression 29.94 pouce
Visibilité 10.0 Miles terrestres
Nuages Ciel dégagé
Refroidissement éolien 39 ° F
Point de rosée 30 ° F
Humidité 71%
Précipitations 0.00 pouce
Profondeur de la couche neigeuse Non disponible.
UV 0 sur 12
Pollen .10 sur 12
Qualité de l'air Non disponible.
Flu Activity Non disponible.
METAR KOLU 280615Z AUTO 14008KT 10SM CLR 04/M02 A2994 RMK AO1

More Conditions Fewer Conditions

10-Day Weather Forecast

Almanac

Astronomie

Jan. 28, 2015 Lever Coucher
Temps réel
Crépuscule civil
Crépuscule nautique
Crépuscule astronomique
Lune
Durée de lumière visible
Longueur du jour
Tomorrow will be .
, % of the Moon is Illuminated

Extrêmes aujourd'hui

State Highs State Lows

Community

WunderPhotos

Upload Photos

1,791,112 Photos téléchargées !

WunderBlogs® & News

Nearby

Qualité de l'air

  Qualité de l'air Indice de la qualité de l'air Polluant
Not available.

Épaisseur de neige

Station Depth Altitude

Activité sismique

Ville Distance Mag. Time & Date
Minimum magnitude displayed is 2.5.

Températures des eaux côtières

Lieu Température

Stations météo à proximité